Boulder, MT (59632)

6:02 PM MDT on March 29, 2015 (GMT -0600)
North Boulder | | Change Station
CLOSE
Current Station
Personal Weather Station
Location: Boulder, MT
Elevation: 4908 ft
Nearby Weather Stations

Elev 4908 ft 46.24 °N, 112.12 °W | Updated 17 seconds ago

Partly Cloudy
Partly Cloudy
58.3 °F
Feels Like 58.3 °F
N
7.2
Wind Variable Wind from NW
Gusts 9.8 mph

Today
High -- | Low -- °F
--% Chance of Precip.
Yesterday
High -- | Low -- °F
Precip. -- in
7:14 AM 7:52 PM
Waxing Gibbous, 75% visible
Pressure 30.14 in
Visibility 10.0 miles
Clouds Clear
Dew Point 24 °F
Humidity 26%
Rainfall 0.00 in
Snow Depth Not available.
UV 1.0 out of 12
Pollen 4.50 out of 12
Air Quality Not available.
Flu Activity Not available.
METAR KBTM 292353Z AUTO 31017G24KT 10SM CLR 13/M04 A3014 RMK AO2 SLP204 T01281044 10139 20072 56006

More Conditions Fewer Conditions

Pressure 30.14 in
Visibility 10.0 miles
Clouds Clear
Dew Point 24 °F
Humidity 26%
Rainfall 0.00 in
Snow Depth Not available.
UV 1.0 out of 12
Pollen 4.50 out of 12
Air Quality Not available.
Flu Activity Not available.
METAR KBTM 292353Z AUTO 31017G24KT 10SM CLR 13/M04 A3014 RMK AO2 SLP204 T01281044 10139 20072 56006

More Conditions Fewer Conditions

10-Day Weather Forecast

Almanac

Astronomy

Mar. 29, 2015 Rise Set
Actual Time
Civil Twilight
Nautical Twilight
Astronomical Twilight
Moon
Length of Visible Light
Length of Day
Tomorrow will be .
, % of the Moon is Illuminated

Today's Extremes

State Highs State Lows

Community

WunderPhotos

Upload Photos

1,809,381 photos uploaded!

WunderBlogs® & News

Nearby

Air Quality

  Air Quality AQ Index Pollutant
Not available.

Snow Depth

Station Depth Elevation

Earthquake Activity

City Distance Mag. Time & Date
Minimum magnitude displayed is 2.5.

Coastal Water Temperatures

Place Temperature

Stations

Nearby Weather Stations

Station Location Temp. Windchill Dew Point Humidity Wind Precip. Elev Updated Type